sensor_id;sensor_type;location;lat;lon;timestamp;P1;durP1;ratioP1;P2;durP2;ratioP2
68888;SDS011;55930;47.412;8.790;2022-08-30T00:00:30;8.88;;;5.60;;
68888;SDS011;55930;47.412;8.790;2022-08-30T00:03:14;9.15;;;6.30;;
68888;SDS011;55930;47.412;8.790;2022-08-30T00:05:40;9.82;;;6.32;;
68888;SDS011;55930;47.412;8.790;2022-08-30T00:08:06;8.10;;;6.03;;
68888;SDS011;55930;47.412;8.790;2022-08-30T00:10:32;6.78;;;5.93;;
68888;SDS011;55930;47.412;8.790;2022-08-30T00:12:58;7.25;;;5.90;;
68888;SDS011;55930;47.412;8.790;2022-08-30T00:15:24;7.50;;;6.10;;
68888;SDS011;55930;47.412;8.790;2022-08-30T00:17:53;7.88;;;6.47;;
68888;SDS011;55930;47.412;8.790;2022-08-30T00:20:20;6.93;;;6.22;;
68888;SDS011;55930;47.412;8.790;2022-08-30T00:22:48;9.63;;;7.18;;
68888;SDS011;55930;47.412;8.790;2022-08-30T00:25:14;7.40;;;6.68;;
68888;SDS011;55930;47.412;8.790;2022-08-30T00:27:40;8.65;;;7.15;;
68888;SDS011;55930;47.412;8.790;2022-08-30T00:30:07;8.65;;;6.85;;
68888;SDS011;55930;47.412;8.790;2022-08-30T00:32:34;12.13;;;7.03;;
68888;SDS011;55930;47.412;8.790;2022-08-30T00:34:59;8.57;;;6.80;;
68888;SDS011;55930;47.412;8.790;2022-08-30T00:37:25;14.43;;;9.30;;
68888;SDS011;55930;47.412;8.790;2022-08-30T00:39:50;9.70;;;7.20;;
68888;SDS011;55930;47.412;8.790;2022-08-30T00:42:16;7.82;;;7.00;;
68888;SDS011;55930;47.412;8.790;2022-08-30T00:44:43;7.75;;;6.55;;
68888;SDS011;55930;47.412;8.790;2022-08-30T00:47:09;8.15;;;7.30;;
68888;SDS011;55930;47.412;8.790;2022-08-30T00:49:35;8.45;;;6.93;;
68888;SDS011;55930;47.412;8.790;2022-08-30T00:52:03;8.10;;;6.47;;
68888;SDS011;55930;47.412;8.790;2022-08-30T00:54:30;7.93;;;7.13;;
68888;SDS011;55930;47.412;8.790;2022-08-30T00:56:56;8.75;;;6.72;;
68888;SDS011;55930;47.412;8.790;2022-08-30T00:59:23;9.23;;;7.25;;
68888;SDS011;55930;47.412;8.790;2022-08-30T01:01:50;10.68;;;6.97;;
68888;SDS011;55930;47.412;8.790;2022-08-30T01:04:16;9.85;;;7.05;;
68888;SDS011;55930;47.412;8.790;2022-08-30T01:06:44;9.05;;;7.55;;
68888;SDS011;55930;47.412;8.790;2022-08-30T01:09:10;9.02;;;7.10;;
68888;SDS011;55930;47.412;8.790;2022-08-30T01:11:37;8.23;;;6.78;;
68888;SDS011;55930;47.412;8.790;2022-08-30T01:14:05;10.30;;;6.68;;
68888;SDS011;55930;47.412;8.790;2022-08-30T01:16:34;8.77;;;7.15;;
68888;SDS011;55930;47.412;8.790;2022-08-30T01:19:00;7.70;;;6.63;;
68888;SDS011;55930;47.412;8.790;2022-08-30T01:21:28;8.85;;;6.75;;
68888;SDS011;55930;47.412;8.790;2022-08-30T01:24:03;6.65;;;5.93;;
68888;SDS011;55930;47.412;8.790;2022-08-30T01:26:30;8.48;;;7.32;;
68888;SDS011;55930;47.412;8.790;2022-08-30T01:28:59;10.18;;;6.90;;
68888;SDS011;55930;47.412;8.790;2022-08-30T01:31:30;9.75;;;6.80;;
68888;SDS011;55930;47.412;8.790;2022-08-30T01:36:25;7.85;;;7.05;;
68888;SDS011;55930;47.412;8.790;2022-08-30T01:38:52;10.63;;;6.95;;
68888;SDS011;55930;47.412;8.790;2022-08-30T01:41:25;8.02;;;7.20;;
68888;SDS011;55930;47.412;8.790;2022-08-30T01:43:54;10.25;;;6.75;;
68888;SDS011;55930;47.412;8.790;2022-08-30T01:46:24;8.95;;;7.18;;
68888;SDS011;55930;47.412;8.790;2022-08-30T01:48:54;8.70;;;6.68;;
68888;SDS011;55930;47.412;8.790;2022-08-30T01:51:21;8.30;;;7.50;;
68888;SDS011;55930;47.412;8.790;2022-08-30T01:53:48;9.70;;;7.47;;
68888;SDS011;55930;47.412;8.790;2022-08-30T01:56:14;9.77;;;7.78;;
68888;SDS011;55930;47.412;8.790;2022-08-30T01:58:40;8.05;;;7.00;;
68888;SDS011;55930;47.412;8.790;2022-08-30T02:01:09;8.93;;;6.45;;
68888;SDS011;55930;47.412;8.790;2022-08-30T02:06:06;8.02;;;6.47;;
68888;SDS011;55930;47.412;8.790;2022-08-30T02:08:34;8.05;;;6.80;;
68888;SDS011;55930;47.412;8.790;2022-08-30T02:11:00;8.07;;;5.97;;
68888;SDS011;55930;47.412;8.790;2022-08-30T02:13:31;8.75;;;6.60;;
68888;SDS011;55930;47.412;8.790;2022-08-30T02:15:58;12.00;;;6.55;;
68888;SDS011;55930;47.412;8.790;2022-08-30T02:18:24;9.23;;;7.57;;
68888;SDS011;55930;47.412;8.790;2022-08-30T02:20:53;10.65;;;6.70;;
68888;SDS011;55930;47.412;8.790;2022-08-30T02:23:18;9.82;;;6.72;;
68888;SDS011;55930;47.412;8.790;2022-08-30T02:25:44;8.38;;;6.88;;
68888;SDS011;55930;47.412;8.790;2022-08-30T02:28:09;7.57;;;5.93;;
68888;SDS011;55930;47.412;8.790;2022-08-30T02:30:35;8.23;;;6.28;;
68888;SDS011;55930;47.412;8.790;2022-08-30T02:33:01;8.00;;;5.80;;
68888;SDS011;55930;47.412;8.790;2022-08-30T02:35:27;7.82;;;6.38;;
68888;SDS011;55930;47.412;8.790;2022-08-30T02:37:52;7.05;;;6.35;;
68888;SDS011;55930;47.412;8.790;2022-08-30T02:40:18;9.07;;;6.30;;
68888;SDS011;55930;47.412;8.790;2022-08-30T02:42:48;8.48;;;6.70;;
68888;SDS011;55930;47.412;8.790;2022-08-30T02:45:16;8.15;;;6.72;;
68888;SDS011;55930;47.412;8.790;2022-08-30T02:47:42;9.32;;;6.68;;
68888;SDS011;55930;47.412;8.790;2022-08-30T02:50:07;7.13;;;6.40;;
68888;SDS011;55930;47.412;8.790;2022-08-30T02:52:34;7.82;;;5.97;;
68888;SDS011;55930;47.412;8.790;2022-08-30T02:55:00;7.25;;;5.90;;
68888;SDS011;55930;47.412;8.790;2022-08-30T02:57:25;8.05;;;6.75;;
68888;SDS011;55930;47.412;8.790;2022-08-30T02:59:51;9.38;;;6.35;;
68888;SDS011;55930;47.412;8.790;2022-08-30T03:02:17;7.10;;;6.40;;
68888;SDS011;55930;47.412;8.790;2022-08-30T03:04:46;6.95;;;6.22;;
68888;SDS011;55930;47.412;8.790;2022-08-30T03:07:14;10.02;;;6.75;;
68888;SDS011;55930;47.412;8.790;2022-08-30T03:09:40;6.80;;;6.07;;
68888;SDS011;55930;47.412;8.790;2022-08-30T03:12:08;7.32;;;5.97;;
68888;SDS011;55930;47.412;8.790;2022-08-30T03:14:35;10.38;;;7.25;;
68888;SDS011;55930;47.412;8.790;2022-08-30T03:17:03;8.98;;;6.13;;
68888;SDS011;55930;47.412;8.790;2022-08-30T03:19:30;8.85;;;5.93;;
68888;SDS011;55930;47.412;8.790;2022-08-30T03:21:57;6.97;;;6.18;;
68888;SDS011;55930;47.412;8.790;2022-08-30T03:24:22;9.63;;;6.70;;
68888;SDS011;55930;47.412;8.790;2022-08-30T03:26:48;10.35;;;6.78;;
68888;SDS011;55930;47.412;8.790;2022-08-30T03:29:13;8.57;;;6.72;;
68888;SDS011;55930;47.412;8.790;2022-08-30T03:31:39;9.18;;;6.82;;
68888;SDS011;55930;47.412;8.790;2022-08-30T03:34:04;9.55;;;6.40;;
68888;SDS011;55930;47.412;8.790;2022-08-30T03:36:30;7.43;;;6.30;;
68888;SDS011;55930;47.412;8.790;2022-08-30T03:38:56;9.93;;;7.20;;
68888;SDS011;55930;47.412;8.790;2022-08-30T03:41:24;10.23;;;6.85;;
68888;SDS011;55930;47.412;8.790;2022-08-30T03:43:49;14.70;;;11.05;;
68888;SDS011;55930;47.412;8.790;2022-08-30T03:46:15;20.55;;;18.35;;
68888;SDS011;55930;47.412;8.790;2022-08-30T03:48:42;14.07;;;12.63;;
68888;SDS011;55930;47.412;8.790;2022-08-30T03:51:08;14.43;;;12.93;;
68888;SDS011;55930;47.412;8.790;2022-08-30T03:53:33;18.00;;;15.88;;
68888;SDS011;55930;47.412;8.790;2022-08-30T03:55:59;22.05;;;19.65;;
68888;SDS011;55930;47.412;8.790;2022-08-30T03:58:24;24.13;;;21.63;;
68888;SDS011;55930;47.412;8.790;2022-08-30T04:00:50;21.88;;;19.67;;
68888;SDS011;55930;47.412;8.790;2022-08-30T04:03:15;19.20;;;17.40;;
68888;SDS011;55930;47.412;8.790;2022-08-30T04:05:42;16.63;;;14.82;;
68888;SDS011;55930;47.412;8.790;2022-08-30T04:08:08;15.23;;;13.18;;
68888;SDS011;55930;47.412;8.790;2022-08-30T04:10:33;13.20;;;10.45;;
68888;SDS011;55930;47.412;8.790;2022-08-30T04:12:59;11.98;;;10.30;;
68888;SDS011;55930;47.412;8.790;2022-08-30T04:15:24;11.07;;;7.28;;
68888;SDS011;55930;47.412;8.790;2022-08-30T04:17:50;10.82;;;7.22;;
68888;SDS011;55930;47.412;8.790;2022-08-30T04:20:15;9.43;;;7.90;;
68888;SDS011;55930;47.412;8.790;2022-08-30T04:22:43;11.13;;;8.52;;
68888;SDS011;55930;47.412;8.790;2022-08-30T04:25:08;9.73;;;7.57;;
68888;SDS011;55930;47.412;8.790;2022-08-30T04:27:34;11.13;;;8.07;;
68888;SDS011;55930;47.412;8.790;2022-08-30T04:30:00;9.88;;;8.07;;
68888;SDS011;55930;47.412;8.790;2022-08-30T04:32:26;11.50;;;8.05;;
68888;SDS011;55930;47.412;8.790;2022-08-30T04:34:58;10.50;;;7.53;;
68888;SDS011;55930;47.412;8.790;2022-08-30T04:37:24;11.27;;;8.25;;
68888;SDS011;55930;47.412;8.790;2022-08-30T04:39:49;10.75;;;7.10;;
68888;SDS011;55930;47.412;8.790;2022-08-30T04:42:15;7.93;;;6.80;;
68888;SDS011;55930;47.412;8.790;2022-08-30T04:44:40;9.15;;;6.85;;
68888;SDS011;55930;47.412;8.790;2022-08-30T04:47:06;8.65;;;6.97;;
68888;SDS011;55930;47.412;8.790;2022-08-30T04:49:33;10.05;;;7.65;;
68888;SDS011;55930;47.412;8.790;2022-08-30T04:51:59;9.65;;;7.22;;
68888;SDS011;55930;47.412;8.790;2022-08-30T04:54:24;10.38;;;7.15;;
68888;SDS011;55930;47.412;8.790;2022-08-30T04:56:52;9.95;;;7.10;;
68888;SDS011;55930;47.412;8.790;2022-08-30T04:59:17;8.02;;;7.22;;
68888;SDS011;55930;47.412;8.790;2022-08-30T05:01:46;10.27;;;6.55;;
68888;SDS011;55930;47.412;8.790;2022-08-30T05:04:13;9.95;;;7.22;;
68888;SDS011;55930;47.412;8.790;2022-08-30T05:06:41;8.05;;;7.07;;
68888;SDS011;55930;47.412;8.790;2022-08-30T05:09:06;9.70;;;6.70;;
68888;SDS011;55930;47.412;8.790;2022-08-30T05:11:32;9.45;;;7.38;;
68888;SDS011;55930;47.412;8.790;2022-08-30T05:14:00;7.88;;;6.85;;
68888;SDS011;55930;47.412;8.790;2022-08-30T05:16:26;8.02;;;6.90;;
68888;SDS011;55930;47.412;8.790;2022-08-30T05:18:51;9.55;;;6.95;;
68888;SDS011;55930;47.412;8.790;2022-08-30T05:21:22;9.27;;;6.40;;
68888;SDS011;55930;47.412;8.790;2022-08-30T05:23:51;10.35;;;7.25;;
68888;SDS011;55930;47.412;8.790;2022-08-30T05:26:20;9.98;;;7.78;;
68888;SDS011;55930;47.412;8.790;2022-08-30T05:28:47;11.10;;;7.47;;
68888;SDS011;55930;47.412;8.790;2022-08-30T05:33:38;9.18;;;6.80;;
68888;SDS011;55930;47.412;8.790;2022-08-30T05:36:06;10.32;;;7.70;;
68888;SDS011;55930;47.412;8.790;2022-08-30T05:38:35;10.35;;;7.53;;
68888;SDS011;55930;47.412;8.790;2022-08-30T05:41:03;9.38;;;7.00;;
68888;SDS011;55930;47.412;8.790;2022-08-30T05:43:29;8.90;;;8.00;;
68888;SDS011;55930;47.412;8.790;2022-08-30T05:45:58;9.32;;;7.47;;
68888;SDS011;55930;47.412;8.790;2022-08-30T05:48:31;12.88;;;8.25;;
68888;SDS011;55930;47.412;8.790;2022-08-30T05:51:08;8.15;;;6.93;;
68888;SDS011;55930;47.412;8.790;2022-08-30T05:53:34;9.70;;;7.05;;
68888;SDS011;55930;47.412;8.790;2022-08-30T05:56:06;10.10;;;6.93;;
68888;SDS011;55930;47.412;8.790;2022-08-30T05:58:33;9.35;;;7.65;;
68888;SDS011;55930;47.412;8.790;2022-08-30T06:00:59;9.52;;;7.55;;
68888;SDS011;55930;47.412;8.790;2022-08-30T06:03:27;11.85;;;7.93;;
68888;SDS011;55930;47.412;8.790;2022-08-30T06:05:53;11.65;;;7.35;;
68888;SDS011;55930;47.412;8.790;2022-08-30T06:08:21;9.35;;;7.80;;
68888;SDS011;55930;47.412;8.790;2022-08-30T06:10:49;8.73;;;7.20;;
68888;SDS011;55930;47.412;8.790;2022-08-30T06:13:17;10.55;;;7.68;;
68888;SDS011;55930;47.412;8.790;2022-08-30T06:15:42;10.10;;;7.35;;
68888;SDS011;55930;47.412;8.790;2022-08-30T06:18:09;8.10;;;7.30;;
68888;SDS011;55930;47.412;8.790;2022-08-30T06:20:40;8.07;;;7.28;;
68888;SDS011;55930;47.412;8.790;2022-08-30T06:23:06;9.50;;;7.35;;
68888;SDS011;55930;47.412;8.790;2022-08-30T06:25:34;8.98;;;7.25;;
68888;SDS011;55930;47.412;8.790;2022-08-30T06:28:01;9.10;;;7.05;;
68888;SDS011;55930;47.412;8.790;2022-08-30T06:30:27;6.78;;;6.05;;
68888;SDS011;55930;47.412;8.790;2022-08-30T06:32:52;6.90;;;6.20;;
68888;SDS011;55930;47.412;8.790;2022-08-30T06:35:17;7.05;;;5.90;;
68888;SDS011;55930;47.412;8.790;2022-08-30T06:37:43;7.30;;;6.07;;
68888;SDS011;55930;47.412;8.790;2022-08-30T06:40:08;9.38;;;6.30;;
68888;SDS011;55930;47.412;8.790;2022-08-30T06:42:35;6.60;;;5.90;;
68888;SDS011;55930;47.412;8.790;2022-08-30T06:45:01;6.53;;;5.78;;
68888;SDS011;55930;47.412;8.790;2022-08-30T06:47:27;6.93;;;5.88;;
68888;SDS011;55930;47.412;8.790;2022-08-30T06:49:53;8.45;;;5.93;;
68888;SDS011;55930;47.412;8.790;2022-08-30T06:52:19;6.78;;;5.38;;
68888;SDS011;55930;47.412;8.790;2022-08-30T06:54:44;7.15;;;5.90;;
68888;SDS011;55930;47.412;8.790;2022-08-30T06:57:10;6.60;;;5.93;;
68888;SDS011;55930;47.412;8.790;2022-08-30T06:59:36;7.07;;;5.50;;
68888;SDS011;55930;47.412;8.790;2022-08-30T07:02:02;7.57;;;6.18;;
68888;SDS011;55930;47.412;8.790;2022-08-30T07:04:31;7.38;;;6.05;;
68888;SDS011;55930;47.412;8.790;2022-08-30T07:06:57;8.07;;;5.72;;
68888;SDS011;55930;47.412;8.790;2022-08-30T07:09:23;6.20;;;5.20;;
68888;SDS011;55930;47.412;8.790;2022-08-30T07:11:48;8.13;;;5.80;;
68888;SDS011;55930;47.412;8.790;2022-08-30T07:14:17;6.80;;;5.75;;
68888;SDS011;55930;47.412;8.790;2022-08-30T07:16:43;6.75;;;5.32;;
68888;SDS011;55930;47.412;8.790;2022-08-30T07:19:09;9.65;;;6.18;;
68888;SDS011;55930;47.412;8.790;2022-08-30T07:21:39;7.07;;;5.53;;
68888;SDS011;55930;47.412;8.790;2022-08-30T07:24:12;8.23;;;5.15;;
68888;SDS011;55930;47.412;8.790;2022-08-30T07:26:40;7.10;;;5.18;;
68888;SDS011;55930;47.412;8.790;2022-08-30T07:29:10;5.45;;;4.95;;
68888;SDS011;55930;47.412;8.790;2022-08-30T07:31:35;8.85;;;5.05;;
68888;SDS011;55930;47.412;8.790;2022-08-30T07:34:02;6.22;;;4.65;;
68888;SDS011;55930;47.412;8.790;2022-08-30T07:36:29;5.38;;;4.85;;
68888;SDS011;55930;47.412;8.790;2022-08-30T07:38:55;5.68;;;4.85;;
68888;SDS011;55930;47.412;8.790;2022-08-30T07:41:26;5.53;;;4.68;;
68888;SDS011;55930;47.412;8.790;2022-08-30T07:43:54;6.20;;;4.95;;
68888;SDS011;55930;47.412;8.790;2022-08-30T07:46:19;6.00;;;4.93;;
68888;SDS011;55930;47.412;8.790;2022-08-30T07:48:46;6.07;;;4.70;;
68888;SDS011;55930;47.412;8.790;2022-08-30T07:51:14;6.43;;;4.65;;
68888;SDS011;55930;47.412;8.790;2022-08-30T07:53:42;6.13;;;5.03;;
68888;SDS011;55930;47.412;8.790;2022-08-30T07:56:10;8.85;;;5.35;;
68888;SDS011;55930;47.412;8.790;2022-08-30T07:58:36;5.45;;;4.80;;
68888;SDS011;55930;47.412;8.790;2022-08-30T08:01:07;6.80;;;4.80;;
68888;SDS011;55930;47.412;8.790;2022-08-30T08:03:36;7.45;;;5.22;;
68888;SDS011;55930;47.412;8.790;2022-08-30T08:06:05;5.18;;;4.68;;
68888;SDS011;55930;47.412;8.790;2022-08-30T08:08:32;5.70;;;4.47;;
68888;SDS011;55930;47.412;8.790;2022-08-30T08:11:04;7.40;;;4.65;;
68888;SDS011;55930;47.412;8.790;2022-08-30T08:13:33;5.72;;;4.75;;
68888;SDS011;55930;47.412;8.790;2022-08-30T08:15:59;5.38;;;4.38;;
68888;SDS011;55930;47.412;8.790;2022-08-30T08:18:24;5.57;;;4.75;;
68888;SDS011;55930;47.412;8.790;2022-08-30T08:20:49;5.30;;;4.45;;
68888;SDS011;55930;47.412;8.790;2022-08-30T08:23:15;6.53;;;4.55;;
68888;SDS011;55930;47.412;8.790;2022-08-30T08:25:42;4.75;;;4.22;;
68888;SDS011;55930;47.412;8.790;2022-08-30T08:28:08;6.20;;;3.95;;
68888;SDS011;55930;47.412;8.790;2022-08-30T08:30:36;5.03;;;4.13;;
68888;SDS011;55930;47.412;8.790;2022-08-30T08:33:03;6.38;;;4.28;;
68888;SDS011;55930;47.412;8.790;2022-08-30T08:35:29;6.63;;;4.38;;
68888;SDS011;55930;47.412;8.790;2022-08-30T08:37:56;5.05;;;4.55;;
68888;SDS011;55930;47.412;8.790;2022-08-30T08:40:21;5.45;;;4.40;;
68888;SDS011;55930;47.412;8.790;2022-08-30T08:48:07;4.95;;;4.28;;
68888;SDS011;55930;47.412;8.790;2022-08-30T08:50:35;4.85;;;4.35;;
68888;SDS011;55930;47.412;8.790;2022-08-30T08:53:11;4.80;;;4.40;;
68888;SDS011;55930;47.412;8.790;2022-08-30T08:56:06;6.22;;;5.10;;
68888;SDS011;55930;47.412;8.790;2022-08-30T08:58:40;5.53;;;4.35;;
68888;SDS011;55930;47.412;8.790;2022-08-30T09:01:06;5.50;;;5.00;;
68888;SDS011;55930;47.412;8.790;2022-08-30T09:03:33;5.20;;;4.68;;
68888;SDS011;55930;47.412;8.790;2022-08-30T09:06:01;5.78;;;4.47;;
68888;SDS011;55930;47.412;8.790;2022-08-30T09:08:31;5.03;;;4.40;;
68888;SDS011;55930;47.412;8.790;2022-08-30T09:11:03;5.38;;;4.15;;
68888;SDS011;55930;47.412;8.790;2022-08-30T09:13:30;5.28;;;4.30;;
68888;SDS011;55930;47.412;8.790;2022-08-30T09:16:01;6.32;;;4.63;;
68888;SDS011;55930;47.412;8.790;2022-08-30T09:18:39;5.00;;;4.50;;
68888;SDS011;55930;47.412;8.790;2022-08-30T09:21:10;7.82;;;5.22;;
68888;SDS011;55930;47.412;8.790;2022-08-30T09:23:36;7.10;;;5.00;;
68888;SDS011;55930;47.412;8.790;2022-08-30T09:26:29;5.80;;;5.22;;
68888;SDS011;55930;47.412;8.790;2022-08-30T09:28:56;12.57;;;6.20;;
68888;SDS011;55930;47.412;8.790;2022-08-30T09:31:31;7.43;;;4.75;;
68888;SDS011;55930;47.412;8.790;2022-08-30T09:34:14;5.68;;;4.65;;
68888;SDS011;55930;47.412;8.790;2022-08-30T09:36:52;8.82;;;5.30;;
68888;SDS011;55930;47.412;8.790;2022-08-30T09:41:51;8.73;;;5.03;;
68888;SDS011;55930;47.412;8.790;2022-08-30T09:44:36;6.70;;;6.03;;
68888;SDS011;55930;47.412;8.790;2022-08-30T09:47:02;6.60;;;5.95;;
68888;SDS011;55930;47.412;8.790;2022-08-30T09:49:42;6.05;;;5.20;;
68888;SDS011;55930;47.412;8.790;2022-08-30T10:03:02;7.47;;;6.38;;
68888;SDS011;55930;47.412;8.790;2022-08-30T10:10:42;8.57;;;6.78;;
68888;SDS011;55930;47.412;8.790;2022-08-30T10:13:20;6.43;;;5.63;;
68888;SDS011;55930;47.412;8.790;2022-08-30T10:18:53;8.43;;;6.85;;
68888;SDS011;55930;47.412;8.790;2022-08-30T10:22:04;6.60;;;6.00;;
68888;SDS011;55930;47.412;8.790;2022-08-30T10:24:41;7.28;;;6.57;;
68888;SDS011;55930;47.412;8.790;2022-08-30T10:27:15;8.10;;;6.13;;
68888;SDS011;55930;47.412;8.790;2022-08-30T10:29:46;10.25;;;6.13;;
68888;SDS011;55930;47.412;8.790;2022-08-30T10:32:19;7.47;;;6.78;;
68888;SDS011;55930;47.412;8.790;2022-08-30T10:34:59;7.32;;;6.40;;
68888;SDS011;55930;47.412;8.790;2022-08-30T10:37:29;7.95;;;5.60;;
68888;SDS011;55930;47.412;8.790;2022-08-30T10:40:10;7.30;;;6.55;;
68888;SDS011;55930;47.412;8.790;2022-08-30T10:42:57;7.60;;;6.35;;
68888;SDS011;55930;47.412;8.790;2022-08-30T10:45:27;6.88;;;6.18;;
68888;SDS011;55930;47.412;8.790;2022-08-30T10:50:34;12.40;;;5.95;;
68888;SDS011;55930;47.412;8.790;2022-08-30T10:53:07;6.85;;;5.35;;
68888;SDS011;55930;47.412;8.790;2022-08-30T10:55:41;5.82;;;4.47;;
68888;SDS011;55930;47.412;8.790;2022-08-30T10:58:28;7.13;;;5.28;;
68888;SDS011;55930;47.412;8.790;2022-08-30T11:09:47;5.20;;;4.70;;
68888;SDS011;55930;47.412;8.790;2022-08-30T11:12:27;6.13;;;5.53;;
68888;SDS011;55930;47.412;8.790;2022-08-30T11:14:57;6.20;;;4.60;;
68888;SDS011;55930;47.412;8.790;2022-08-30T11:20:06;8.10;;;5.57;;
68888;SDS011;55930;47.412;8.790;2022-08-30T11:26:05;5.43;;;4.68;;
68888;SDS011;55930;47.412;8.790;2022-08-30T11:31:04;6.70;;;5.45;;
68888;SDS011;55930;47.412;8.790;2022-08-30T11:33:57;4.75;;;4.13;;
68888;SDS011;55930;47.412;8.790;2022-08-30T11:44:32;5.40;;;4.90;;
68888;SDS011;55930;47.412;8.790;2022-08-30T11:46:58;4.78;;;4.28;;
68888;SDS011;55930;47.412;8.790;2022-08-30T12:00:37;9.38;;;5.00;;
68888;SDS011;55930;47.412;8.790;2022-08-30T12:10:54;5.68;;;4.85;;
68888;SDS011;55930;47.412;8.790;2022-08-30T12:18:29;10.38;;;5.20;;
68888;SDS011;55930;47.412;8.790;2022-08-30T12:21:09;6.30;;;4.38;;
68888;SDS011;55930;47.412;8.790;2022-08-30T12:26:37;8.35;;;4.57;;
68888;SDS011;55930;47.412;8.790;2022-08-30T12:29:18;4.97;;;4.32;;
68888;SDS011;55930;47.412;8.790;2022-08-30T12:37:04;5.65;;;4.07;;
68888;SDS011;55930;47.412;8.790;2022-08-30T12:39:48;4.38;;;3.97;;
68888;SDS011;55930;47.412;8.790;2022-08-30T12:42:27;7.10;;;4.40;;
68888;SDS011;55930;47.412;8.790;2022-08-30T12:44:55;4.47;;;4.07;;
68888;SDS011;55930;47.412;8.790;2022-08-30T12:47:29;5.22;;;3.90;;
68888;SDS011;55930;47.412;8.790;2022-08-30T12:50:03;6.57;;;4.00;;
68888;SDS011;55930;47.412;8.790;2022-08-30T12:52:34;4.72;;;4.20;;
68888;SDS011;55930;47.412;8.790;2022-08-30T12:55:15;4.50;;;4.00;;
68888;SDS011;55930;47.412;8.790;2022-08-30T13:39:45;4.65;;;3.55;;
68888;SDS011;55930;47.412;8.790;2022-08-30T13:42:10;4.47;;;3.60;;
68888;SDS011;55930;47.412;8.790;2022-08-30T13:44:36;4.85;;;3.30;;
68888;SDS011;55930;47.412;8.790;2022-08-30T13:47:02;7.03;;;3.65;;
68888;SDS011;55930;47.412;8.790;2022-08-30T13:49:30;4.18;;;3.78;;
68888;SDS011;55930;47.412;8.790;2022-08-30T13:51:57;4.82;;;3.85;;
68888;SDS011;55930;47.412;8.790;2022-08-30T13:54:22;4.10;;;3.50;;
68888;SDS011;55930;47.412;8.790;2022-08-30T13:56:49;3.33;;;3.03;;
68888;SDS011;55930;47.412;8.790;2022-08-30T13:59:19;3.40;;;3.08;;
68888;SDS011;55930;47.412;8.790;2022-08-30T14:01:44;5.10;;;3.30;;
68888;SDS011;55930;47.412;8.790;2022-08-30T14:04:10;3.00;;;2.60;;
68888;SDS011;55930;47.412;8.790;2022-08-30T14:06:36;4.28;;;2.75;;
68888;SDS011;55930;47.412;8.790;2022-08-30T14:09:02;3.28;;;2.97;;
68888;SDS011;55930;47.412;8.790;2022-08-30T14:11:30;3.43;;;3.13;;
68888;SDS011;55930;47.412;8.790;2022-08-30T14:13:55;3.72;;;3.08;;
68888;SDS011;55930;47.412;8.790;2022-08-30T14:16:27;3.30;;;2.90;;
68888;SDS011;55930;47.412;8.790;2022-08-30T14:18:52;3.08;;;2.78;;
68888;SDS011;55930;47.412;8.790;2022-08-30T14:21:19;4.28;;;3.17;;
68888;SDS011;55930;47.412;8.790;2022-08-30T14:23:44;4.32;;;3.60;;
68888;SDS011;55930;47.412;8.790;2022-08-30T14:26:12;3.88;;;3.00;;
68888;SDS011;55930;47.412;8.790;2022-08-30T14:28:41;3.30;;;2.90;;
68888;SDS011;55930;47.412;8.790;2022-08-30T14:31:08;3.22;;;2.92;;
68888;SDS011;55930;47.412;8.790;2022-08-30T14:33:34;3.35;;;2.88;;
68888;SDS011;55930;47.412;8.790;2022-08-30T14:36:00;3.30;;;3.00;;
68888;SDS011;55930;47.412;8.790;2022-08-30T14:38:29;3.75;;;3.13;;
68888;SDS011;55930;47.412;8.790;2022-08-30T14:40:55;4.50;;;3.00;;
68888;SDS011;55930;47.412;8.790;2022-08-30T14:43:21;5.30;;;2.65;;
68888;SDS011;55930;47.412;8.790;2022-08-30T14:45:51;3.13;;;2.85;;
68888;SDS011;55930;47.412;8.790;2022-08-30T14:48:25;2.97;;;2.72;;
68888;SDS011;55930;47.412;8.790;2022-08-30T14:50:53;2.97;;;2.50;;
68888;SDS011;55930;47.412;8.790;2022-08-30T14:53:18;4.80;;;2.92;;
68888;SDS011;55930;47.412;8.790;2022-08-30T14:55:44;3.80;;;2.85;;
68888;SDS011;55930;47.412;8.790;2022-08-30T14:58:09;4.85;;;3.22;;
68888;SDS011;55930;47.412;8.790;2022-08-30T15:00:38;3.17;;;2.88;;
68888;SDS011;55930;47.412;8.790;2022-08-30T15:03:03;3.25;;;2.85;;
68888;SDS011;55930;47.412;8.790;2022-08-30T15:05:32;3.00;;;2.67;;
68888;SDS011;55930;47.412;8.790;2022-08-30T15:07:58;2.95;;;2.55;;
68888;SDS011;55930;47.412;8.790;2022-08-30T15:10:23;3.30;;;2.88;;
68888;SDS011;55930;47.412;8.790;2022-08-30T15:12:49;2.55;;;2.30;;
68888;SDS011;55930;47.412;8.790;2022-08-30T15:15:18;3.22;;;2.35;;
68888;SDS011;55930;47.412;8.790;2022-08-30T15:17:45;4.65;;;2.80;;
68888;SDS011;55930;47.412;8.790;2022-08-30T15:20:11;2.80;;;2.60;;
68888;SDS011;55930;47.412;8.790;2022-08-30T15:22:38;3.20;;;2.85;;
68888;SDS011;55930;47.412;8.790;2022-08-30T15:25:04;4.13;;;3.17;;
68888;SDS011;55930;47.412;8.790;2022-08-30T15:27:41;3.33;;;3.03;;
68888;SDS011;55930;47.412;8.790;2022-08-30T15:30:06;3.65;;;3.35;;
68888;SDS011;55930;47.412;8.790;2022-08-30T15:32:32;4.13;;;3.13;;
68888;SDS011;55930;47.412;8.790;2022-08-30T15:34:58;5.03;;;4.00;;
68888;SDS011;55930;47.412;8.790;2022-08-30T15:37:24;9.50;;;3.85;;
68888;SDS011;55930;47.412;8.790;2022-08-30T15:40:12;3.42;;;2.95;;
68888;SDS011;55930;47.412;8.790;2022-08-30T15:43:13;4.20;;;3.70;;
68888;SDS011;55930;47.412;8.790;2022-08-30T15:45:39;3.83;;;3.28;;
68888;SDS011;55930;47.412;8.790;2022-08-30T15:48:05;6.65;;;4.22;;
68888;SDS011;55930;47.412;8.790;2022-08-30T15:50:30;4.95;;;4.45;;
68888;SDS011;55930;47.412;8.790;2022-08-30T15:52:56;5.65;;;3.35;;
68888;SDS011;55930;47.412;8.790;2022-08-30T15:55:24;4.50;;;3.42;;
68888;SDS011;55930;47.412;8.790;2022-08-30T15:58:02;4.28;;;3.60;;
68888;SDS011;55930;47.412;8.790;2022-08-30T16:00:28;4.75;;;4.00;;
68888;SDS011;55930;47.412;8.790;2022-08-30T16:03:15;4.57;;;3.17;;
68888;SDS011;55930;47.412;8.790;2022-08-30T16:05:40;3.92;;;3.35;;
68888;SDS011;55930;47.412;8.790;2022-08-30T16:08:05;4.18;;;3.53;;
68888;SDS011;55930;47.412;8.790;2022-08-30T16:10:31;3.78;;;3.33;;
68888;SDS011;55930;47.412;8.790;2022-08-30T16:12:56;4.78;;;3.63;;
68888;SDS011;55930;47.412;8.790;2022-08-30T16:15:46;4.20;;;3.22;;
68888;SDS011;55930;47.412;8.790;2022-08-30T16:18:12;4.65;;;3.70;;
68888;SDS011;55930;47.412;8.790;2022-08-30T16:20:40;5.88;;;3.47;;
68888;SDS011;55930;47.412;8.790;2022-08-30T16:23:06;3.80;;;3.28;;
68888;SDS011;55930;47.412;8.790;2022-08-30T16:25:33;4.78;;;3.90;;
68888;SDS011;55930;47.412;8.790;2022-08-30T16:28:04;6.18;;;4.07;;
68888;SDS011;55930;47.412;8.790;2022-08-30T16:30:29;6.18;;;3.35;;
68888;SDS011;55930;47.412;8.790;2022-08-30T16:32:55;6.60;;;3.22;;
68888;SDS011;55930;47.412;8.790;2022-08-30T16:35:20;3.72;;;3.25;;
68888;SDS011;55930;47.412;8.790;2022-08-30T16:37:48;4.80;;;3.28;;
68888;SDS011;55930;47.412;8.790;2022-08-30T16:40:14;4.07;;;3.45;;
68888;SDS011;55930;47.412;8.790;2022-08-30T16:42:40;4.93;;;3.28;;
68888;SDS011;55930;47.412;8.790;2022-08-30T16:45:09;6.65;;;3.35;;
68888;SDS011;55930;47.412;8.790;2022-08-30T16:47:35;6.30;;;3.22;;
68888;SDS011;55930;47.412;8.790;2022-08-30T16:50:00;4.60;;;3.33;;
68888;SDS011;55930;47.412;8.790;2022-08-30T16:52:26;4.22;;;3.38;;
68888;SDS011;55930;47.412;8.790;2022-08-30T16:54:51;6.15;;;3.42;;
68888;SDS011;55930;47.412;8.790;2022-08-30T16:57:17;3.60;;;3.15;;
68888;SDS011;55930;47.412;8.790;2022-08-30T16:59:42;5.25;;;3.40;;
68888;SDS011;55930;47.412;8.790;2022-08-30T17:02:07;8.52;;;3.63;;
68888;SDS011;55930;47.412;8.790;2022-08-30T17:04:33;3.63;;;3.30;;
68888;SDS011;55930;47.412;8.790;2022-08-30T17:07:18;8.30;;;3.72;;
68888;SDS011;55930;47.412;8.790;2022-08-30T17:09:56;5.30;;;3.78;;